createdAt,value
2018-04-01T00:02:26.939Z,0.98
2018-04-01T00:04:54.804Z,1.00
2018-04-01T00:07:22.716Z,1.10
2018-04-01T00:09:50.629Z,1.00
2018-04-01T00:12:18.491Z,1.20
2018-04-01T00:14:46.393Z,1.17
2018-04-01T00:17:14.325Z,1.00
2018-04-01T00:19:42.214Z,0.82
2018-04-01T00:22:10.165Z,1.02
2018-04-01T00:24:38.012Z,1.33
2018-04-01T00:27:05.892Z,1.43
2018-04-01T00:29:33.821Z,1.37
2018-04-01T00:32:01.754Z,0.75
2018-04-01T00:34:29.648Z,1.00
2018-04-01T00:36:57.550Z,1.08
2018-04-01T00:39:25.460Z,0.80
2018-04-01T00:41:53.359Z,0.68
2018-04-01T00:44:21.247Z,0.95
2018-04-01T00:46:49.142Z,0.90
2018-04-01T00:49:17.047Z,0.98
2018-04-01T00:51:44.903Z,0.87
2018-04-01T00:54:12.776Z,1.23
2018-04-01T00:56:40.652Z,0.60
2018-04-01T00:59:08.563Z,1.05
2018-04-01T01:01:36.479Z,0.85
2018-04-01T01:04:04.366Z,0.93
2018-04-01T01:06:32.286Z,0.55
2018-04-01T01:09:00.231Z,0.60
2018-04-01T01:11:28.116Z,1.10
2018-04-01T01:13:56.013Z,1.10
2018-04-01T01:16:23.888Z,1.52
2018-04-01T01:18:51.769Z,0.65
2018-04-01T01:21:19.683Z,0.70
2018-04-01T01:23:47.580Z,0.80
2018-04-01T01:26:15.484Z,1.10
2018-04-01T01:28:43.380Z,0.88
2018-04-01T01:31:11.243Z,1.00
2018-04-01T01:33:39.122Z,1.02
2018-04-01T01:36:06.989Z,0.60
2018-04-01T01:38:34.921Z,1.05
2018-04-01T01:41:02.766Z,1.37
2018-04-01T01:43:30.696Z,0.80
2018-04-01T01:45:58.604Z,0.70
2018-04-01T01:48:26.502Z,0.90
2018-04-01T01:50:54.420Z,1.05
2018-04-01T01:53:22.308Z,0.73
2018-04-01T01:55:50.239Z,1.00
2018-04-01T01:58:18.148Z,1.17
2018-04-01T02:00:46.060Z,1.23
2018-04-01T02:03:13.985Z,0.77
2018-04-01T02:05:41.877Z,1.23
2018-04-01T02:08:09.744Z,1.15
2018-04-01T02:10:37.650Z,1.10
2018-04-01T02:13:05.573Z,1.00
2018-04-01T02:15:33.444Z,0.80
2018-04-01T02:18:01.352Z,1.15
2018-04-01T02:20:29.271Z,1.67
2018-04-01T02:22:57.160Z,1.00
2018-04-01T02:25:25.024Z,0.98
2018-04-01T02:27:52.908Z,0.85
2018-04-01T02:30:20.784Z,1.05
2018-04-01T02:32:48.684Z,1.20
2018-04-01T02:35:16.624Z,1.00
2018-04-01T02:37:44.523Z,1.23
2018-04-01T02:40:12.459Z,1.40
2018-04-01T02:42:40.373Z,1.42
2018-04-01T02:45:08.229Z,1.23
2018-04-01T02:47:36.130Z,1.20
2018-04-01T02:50:04.017Z,1.30
2018-04-01T02:52:31.888Z,1.25
2018-04-01T02:54:59.769Z,1.30
2018-04-01T02:57:27.653Z,1.35
2018-04-01T02:59:55.598Z,1.42
2018-04-01T03:02:23.490Z,2.30
2018-04-01T03:04:51.389Z,1.70
2018-04-01T03:07:19.275Z,1.48
2018-04-01T03:09:47.150Z,1.50
2018-04-01T03:12:15.057Z,1.73
2018-04-01T03:14:42.997Z,1.62
2018-04-01T03:17:10.872Z,1.98
2018-04-01T03:19:38.796Z,1.10
2018-04-01T03:22:06.692Z,1.87
2018-04-01T03:24:34.592Z,1.83
2018-04-01T03:27:02.480Z,1.80
2018-04-01T03:29:30.400Z,2.10
2018-04-01T03:31:58.252Z,2.15
2018-04-01T03:34:26.149Z,1.52
2018-04-01T03:36:54.083Z,1.67
2018-04-01T03:39:21.961Z,1.70
2018-04-01T03:41:49.866Z,1.98
2018-04-01T03:44:17.776Z,2.03
2018-04-01T03:46:45.657Z,2.30
2018-04-01T03:49:13.568Z,1.67
2018-04-01T03:51:41.484Z,1.80
2018-04-01T03:54:09.356Z,2.40
2018-04-01T03:56:37.231Z,2.50
2018-04-01T03:59:05.109Z,2.22
2018-04-01T04:01:32.980Z,2.42
2018-04-01T04:04:00.916Z,2.55
2018-04-01T04:06:28.828Z,2.00
2018-04-01T04:08:56.716Z,2.40
2018-04-01T04:11:24.628Z,2.72
2018-04-01T04:13:52.504Z,2.87
2018-04-01T04:16:20.397Z,3.28
2018-04-01T04:18:48.278Z,2.90
2018-04-01T04:21:16.216Z,2.50
2018-04-01T04:23:44.097Z,2.35
2018-04-01T04:26:12.005Z,2.20
2018-04-01T04:28:39.876Z,2.15
2018-04-01T04:31:07.773Z,2.65
2018-04-01T04:33:35.660Z,3.25
2018-04-01T04:36:03.535Z,2.70
2018-04-01T04:38:31.437Z,3.70
2018-04-01T04:40:59.310Z,3.35
2018-04-01T04:43:27.233Z,3.33
2018-04-01T04:45:55.112Z,3.78
2018-04-01T04:48:23.008Z,3.70
2018-04-01T04:50:50.911Z,3.87
2018-04-01T04:53:18.764Z,3.80
2018-04-01T04:55:46.684Z,4.37
2018-04-01T04:58:14.572Z,3.80
2018-04-01T05:00:42.492Z,3.28
2018-04-01T05:03:10.371Z,4.22
2018-04-01T05:05:38.230Z,3.85
2018-04-01T05:08:06.106Z,3.95
2018-04-01T05:10:34.049Z,3.30
2018-04-01T05:13:01.916Z,4.37
2018-04-01T05:15:29.837Z,3.55
2018-04-01T05:17:57.753Z,4.07
2018-04-01T05:20:25.645Z,3.92
2018-04-01T05:22:53.507Z,4.05
2018-04-01T05:25:21.371Z,4.78
2018-04-01T05:27:49.266Z,4.25
2018-04-01T05:30:17.168Z,3.53
2018-04-01T05:32:45.108Z,4.30
2018-04-01T05:35:13.012Z,3.25
2018-04-01T05:37:40.879Z,4.43
2018-04-01T05:40:08.763Z,4.30
2018-04-01T05:42:37.657Z,3.97
2018-04-01T05:45:05.626Z,3.45
2018-04-01T05:47:33.517Z,4.18
2018-04-01T05:50:01.400Z,4.07
2018-04-01T05:52:29.280Z,3.37
2018-04-01T05:54:57.163Z,4.43
2018-04-01T05:57:25.064Z,4.85
2018-04-01T05:59:52.960Z,3.80
2018-04-01T06:02:20.855Z,3.90
2018-04-01T06:04:48.760Z,4.90
2018-04-01T06:07:16.666Z,5.00
2018-04-01T06:09:44.594Z,4.85
2018-04-01T06:12:12.537Z,4.90
2018-04-01T06:14:40.350Z,5.53
2018-04-01T06:17:08.230Z,4.95
2018-04-01T06:19:36.136Z,6.35
2018-04-01T06:22:04.033Z,6.90
2018-04-01T06:24:31.920Z,6.80
2018-04-01T06:27:00.966Z,4.70
2018-04-01T06:29:28.808Z,5.25
2018-04-01T06:31:56.725Z,4.40
2018-04-01T06:34:24.646Z,5.30
2018-04-01T06:36:52.533Z,5.18
2018-04-01T06:39:20.428Z,5.93
2018-04-01T06:41:48.376Z,5.05
2018-04-01T06:44:16.235Z,6.57
2018-04-01T06:46:44.123Z,7.10
2018-04-01T06:49:12.014Z,7.57
2018-04-01T06:51:39.908Z,8.00
2018-04-01T06:54:07.790Z,16.17
2018-04-01T06:56:35.671Z,9.15
2018-04-01T06:59:03.540Z,8.23
2018-04-01T07:01:31.439Z,6.97
2018-04-01T07:03:59.323Z,9.10
2018-04-01T07:06:27.184Z,8.88
2018-04-01T07:08:55.076Z,7.70
2018-04-01T07:11:22.980Z,7.72
2018-04-01T07:13:50.838Z,8.25
2018-04-01T07:16:18.749Z,8.63
2018-04-01T07:18:46.662Z,8.38
2018-04-01T07:21:14.580Z,8.38
2018-04-01T07:23:42.527Z,7.30
2018-04-01T07:26:11.399Z,7.25
2018-04-01T07:28:39.244Z,7.85
2018-04-01T07:31:07.144Z,7.35
2018-04-01T07:33:35.032Z,7.15
2018-04-01T07:36:02.935Z,8.50
2018-04-01T07:38:30.803Z,6.90
2018-04-01T07:40:58.713Z,6.45
2018-04-01T07:43:26.616Z,7.68
2018-04-01T07:45:54.508Z,8.32
2018-04-01T07:48:22.440Z,8.25
2018-04-01T07:50:50.308Z,7.10
2018-04-01T07:53:18.205Z,7.60
2018-04-01T07:55:46.114Z,7.47
2018-04-01T07:58:13.996Z,6.95
2018-04-01T08:00:41.951Z,7.35
2018-04-01T08:03:09.825Z,7.03
2018-04-01T08:05:37.736Z,6.70
2018-04-01T08:08:06.749Z,6.78
2018-04-01T08:10:34.594Z,7.60
2018-04-01T08:13:02.501Z,7.85
2018-04-01T08:15:30.391Z,7.10
2018-04-01T08:17:58.308Z,8.15
2018-04-01T08:20:26.228Z,6.40
2018-04-01T08:22:54.120Z,6.93
2018-04-01T08:25:22.016Z,7.50
2018-04-01T08:27:51.160Z,7.07
2018-04-01T08:30:19.049Z,7.03
2018-04-01T08:32:46.977Z,7.82
2018-04-01T08:35:14.892Z,7.60
2018-04-01T08:37:42.828Z,7.50
2018-04-01T08:40:10.775Z,7.03
2018-04-01T08:42:38.660Z,7.50
2018-04-01T08:45:07.660Z,7.05
2018-04-01T08:47:35.616Z,7.78
2018-04-01T08:50:03.497Z,7.95
2018-04-01T08:52:31.381Z,6.70
2018-04-01T08:54:59.313Z,6.62
2018-04-01T08:57:27.228Z,8.52
2018-04-01T08:59:55.142Z,7.20
2018-04-01T09:02:23.040Z,8.50
2018-04-01T09:04:51.020Z,6.68
2018-04-01T09:07:18.960Z,7.70
2018-04-01T09:09:46.908Z,8.48
2018-04-01T09:12:14.844Z,7.57
2018-04-01T09:14:42.805Z,7.03
2018-04-01T09:17:10.722Z,7.93
2018-04-01T09:19:39.612Z,7.00
2018-04-01T09:22:07.524Z,9.10
2018-04-01T09:24:35.419Z,9.90
2018-04-01T09:27:03.312Z,11.25
2018-04-01T09:29:31.208Z,10.32
2018-04-01T09:31:59.104Z,9.40
2018-04-01T09:34:27.013Z,10.00
2018-04-01T09:36:54.923Z,8.80
2018-04-01T09:39:22.840Z,10.85
2018-04-01T09:41:50.746Z,10.98
2018-04-01T09:44:18.642Z,7.65
2018-04-01T09:46:46.561Z,8.32
2018-04-01T09:49:14.457Z,10.48
2018-04-01T09:51:42.328Z,9.55
2018-04-01T09:54:10.227Z,7.00
2018-04-01T09:56:38.180Z,7.57
2018-04-01T09:59:06.113Z,6.10
2018-04-01T10:01:35.145Z,6.47
2018-04-01T10:04:03.146Z,5.62
2018-04-01T10:06:31.211Z,6.80
2018-04-01T10:08:59.186Z,5.57
2018-04-01T10:11:27.152Z,4.53
2018-04-01T10:13:55.170Z,3.05
2018-04-01T10:16:23.152Z,2.22
2018-04-01T10:18:51.139Z,2.58
2018-04-01T10:21:19.116Z,3.85
2018-04-01T10:23:47.117Z,3.15
2018-04-01T10:26:15.156Z,3.58
2018-04-01T10:28:43.160Z,3.58
2018-04-01T10:31:11.199Z,4.07
2018-04-01T10:33:39.207Z,3.55
2018-04-01T10:36:07.207Z,2.90
2018-04-01T10:38:35.240Z,3.33
2018-04-01T10:41:03.278Z,3.93
2018-04-01T10:43:31.504Z,3.67
2018-04-01T10:45:59.488Z,3.27
2018-04-01T10:48:28.608Z,3.00
2018-04-01T10:50:56.607Z,3.47
2018-04-01T10:53:24.651Z,3.80
2018-04-01T10:55:52.541Z,3.77
2018-04-01T10:58:20.443Z,3.97
2018-04-01T11:00:48.438Z,2.80
2018-04-01T11:03:16.351Z,4.77
2018-04-01T11:05:44.238Z,4.10
2018-04-01T11:08:12.143Z,2.87
2018-04-01T11:10:40.016Z,10.10
2018-04-01T11:13:07.899Z,3.47
2018-04-01T11:15:35.777Z,2.90
2018-04-01T11:18:03.674Z,3.25
2018-04-01T11:20:31.556Z,2.80
2018-04-01T11:22:59.465Z,2.90
2018-04-01T11:25:28.398Z,2.30
2018-04-01T11:27:56.258Z,2.93
2018-04-01T11:30:25.238Z,2.27
2018-04-01T11:32:53.103Z,2.30
2018-04-01T11:35:22.026Z,2.25
2018-04-01T11:37:49.960Z,2.90
2018-04-01T11:40:17.899Z,2.33
2018-04-01T11:42:45.820Z,2.87
2018-04-01T11:45:13.749Z,3.30
2018-04-01T11:47:41.653Z,4.47
2018-04-01T11:50:09.524Z,4.47
2018-04-01T11:52:38.503Z,4.67
2018-04-01T11:55:06.368Z,2.87
2018-04-01T11:57:34.272Z,3.40
2018-04-01T12:00:02.205Z,4.30
2018-04-01T12:02:30.085Z,4.97
2018-04-01T12:04:57.992Z,3.93
2018-04-01T12:07:26.948Z,2.57
2018-04-01T12:09:54.820Z,2.70
2018-04-01T12:12:22.700Z,3.77
2018-04-01T12:14:50.599Z,3.23
2018-04-01T12:17:18.456Z,4.07
2018-04-01T12:19:46.371Z,4.20
2018-04-01T12:22:14.432Z,3.67
2018-04-01T12:24:42.376Z,3.63
2018-04-01T12:27:10.240Z,3.50
2018-04-01T12:29:38.111Z,3.43
2018-04-01T12:32:06.017Z,3.47
2018-04-01T12:34:33.908Z,2.93
2018-04-01T12:37:01.803Z,6.17
2018-04-01T12:39:29.752Z,3.47
2018-04-01T12:41:57.609Z,3.40
2018-04-01T12:44:25.497Z,3.33
2018-04-01T12:46:53.387Z,2.73
2018-04-01T12:49:21.274Z,2.80
2018-04-01T12:51:49.177Z,3.20
2018-04-01T12:54:17.076Z,3.17
2018-04-01T12:56:44.989Z,3.20
2018-04-01T12:59:12.884Z,2.90
2018-04-01T13:01:40.795Z,2.50
2018-04-01T13:04:09.780Z,2.83
2018-04-01T13:06:37.711Z,3.00
2018-04-01T13:09:05.603Z,3.43
2018-04-01T13:11:33.487Z,2.47
2018-04-01T13:14:01.416Z,3.07
2018-04-01T13:16:29.305Z,2.50
2018-04-01T13:18:57.197Z,2.37
2018-04-01T13:21:26.088Z,2.53
2018-04-01T13:23:53.970Z,3.00
2018-04-01T13:26:21.867Z,3.07
2018-04-01T13:28:49.779Z,3.03
2018-04-01T13:31:17.700Z,3.20
2018-04-01T13:33:45.642Z,3.03
2018-04-01T13:36:13.560Z,2.67
2018-04-01T13:38:41.444Z,3.10
2018-04-01T13:41:09.320Z,3.17
2018-04-01T13:43:37.244Z,2.70
2018-04-01T13:46:05.181Z,2.60
2018-04-01T13:48:33.059Z,2.87
2018-04-01T13:51:00.972Z,2.57
2018-04-01T13:53:28.882Z,3.13
2018-04-01T13:55:56.747Z,2.20
2018-04-01T13:58:24.664Z,2.13
2018-04-01T14:00:52.528Z,2.40
2018-04-01T14:03:20.438Z,2.90
2018-04-01T14:05:48.337Z,2.83
2018-04-01T14:08:16.244Z,2.60
2018-04-01T14:10:44.138Z,2.90
2018-04-01T14:13:12.064Z,3.10
2018-04-01T14:15:39.934Z,3.10
2018-04-01T14:18:07.844Z,3.20
2018-04-01T14:20:35.780Z,3.17
2018-04-01T14:23:03.679Z,3.20
2018-04-01T14:25:31.598Z,3.73
2018-04-01T14:27:59.499Z,3.40
2018-04-01T14:30:27.432Z,3.87
2018-04-01T14:32:55.345Z,4.40
2018-04-01T14:35:23.244Z,3.40
2018-04-01T14:37:51.109Z,3.77
2018-04-01T14:40:20.008Z,2.70
2018-04-01T14:42:47.896Z,21.73
2018-04-01T14:45:15.780Z,2.40
2018-04-01T14:47:43.664Z,1.80
2018-04-01T14:50:12.740Z,2.07
2018-04-01T14:52:40.549Z,2.17
2018-04-01T14:55:08.428Z,2.13
2018-04-01T14:57:36.313Z,1.73
2018-04-01T15:00:04.227Z,2.20
2018-04-01T15:02:32.149Z,1.97
2018-04-01T15:05:00.029Z,2.43
2018-04-01T15:07:27.916Z,2.30
2018-04-01T15:09:55.801Z,3.80
2018-04-01T15:12:23.699Z,4.17
2018-04-01T15:14:51.576Z,4.37
2018-04-01T15:17:19.481Z,4.37
2018-04-01T15:19:47.395Z,11.43
2018-04-01T15:22:15.292Z,4.47
2018-04-01T15:24:43.200Z,4.63
2018-04-01T15:27:11.096Z,3.83
2018-04-01T15:29:39.029Z,4.70
2018-04-01T15:32:06.884Z,4.93
2018-04-01T15:34:34.793Z,4.50
2018-04-01T15:37:03.111Z,4.20
2018-04-01T15:39:32.050Z,5.03
2018-04-01T15:42:00.224Z,4.90
2018-04-01T15:44:28.091Z,6.83
2018-04-01T15:46:55.967Z,6.10
2018-04-01T15:49:23.880Z,6.80
2018-04-01T15:51:51.770Z,6.57
2018-04-01T15:54:19.666Z,5.70
2018-04-01T15:56:47.580Z,7.27
2018-04-01T15:59:15.503Z,6.40
2018-04-01T16:01:43.427Z,6.55
2018-04-01T16:04:11.316Z,6.75
2018-04-01T16:06:39.261Z,6.07
2018-04-01T16:09:07.160Z,7.22
2018-04-01T16:11:35.065Z,6.57
2018-04-01T16:14:02.944Z,7.00
2018-04-01T16:16:30.835Z,6.50
2018-04-01T16:18:58.758Z,6.33
2018-04-01T16:21:26.649Z,6.30
2018-04-01T16:23:54.537Z,6.00
2018-04-01T16:26:22.416Z,6.82
2018-04-01T16:28:50.272Z,6.27
2018-04-01T16:31:18.150Z,5.77
2018-04-01T16:33:46.064Z,6.80
2018-04-01T16:36:13.952Z,5.30
2018-04-01T16:38:41.857Z,6.53
2018-04-01T16:41:09.788Z,7.80
2018-04-01T16:43:37.680Z,7.23
2018-04-01T16:46:05.628Z,6.17
2018-04-01T16:48:33.544Z,6.93
2018-04-01T16:51:01.429Z,7.23
2018-04-01T16:53:29.336Z,7.00
2018-04-01T16:55:57.281Z,6.90
2018-04-01T16:58:25.167Z,6.10
2018-04-01T17:00:53.063Z,6.20
2018-04-01T17:03:21.008Z,6.87
2018-04-01T17:05:48.921Z,6.27
2018-04-01T17:08:16.809Z,6.65
2018-04-01T17:10:44.720Z,6.83
2018-04-01T17:13:12.592Z,6.78
2018-04-01T17:15:40.532Z,7.50
2018-04-01T17:18:08.451Z,6.65
2018-04-01T17:20:36.312Z,8.35
2018-04-01T17:23:04.233Z,27.60
2018-04-01T17:25:32.128Z,9.33
2018-04-01T17:28:00.008Z,6.80
2018-04-01T17:30:27.912Z,7.43
2018-04-01T17:32:56.674Z,6.50
2018-04-01T17:35:24.570Z,6.60
2018-04-01T17:37:52.453Z,7.78
2018-04-01T17:40:20.341Z,7.40
2018-04-01T17:42:48.228Z,7.17
2018-04-01T17:45:16.359Z,7.33
2018-04-01T17:47:44.281Z,6.80
2018-04-01T17:50:12.246Z,7.05
2018-04-01T17:52:40.152Z,8.07
2018-04-01T17:55:08.129Z,6.97
2018-04-01T17:57:35.994Z,6.45
2018-04-01T18:00:03.919Z,7.15
2018-04-01T18:02:31.834Z,7.87
2018-04-01T18:04:59.726Z,8.32
2018-04-01T18:07:27.628Z,8.80
2018-04-01T18:09:55.544Z,19.10
2018-04-01T18:12:23.462Z,36.30
2018-04-01T18:14:51.386Z,8.68
2018-04-01T18:17:19.295Z,10.60
2018-04-01T18:19:47.183Z,10.40
2018-04-01T18:22:15.088Z,9.85
2018-04-01T18:24:43.007Z,10.68
2018-04-01T18:27:10.900Z,10.55
2018-04-01T18:29:38.823Z,10.15
2018-04-01T18:32:06.749Z,11.68
2018-04-01T18:34:34.644Z,11.32
2018-04-01T18:37:02.572Z,12.73
2018-04-01T18:39:30.488Z,13.75
2018-04-01T18:41:58.422Z,14.15
2018-04-01T18:44:26.290Z,12.70
2018-04-01T18:46:54.217Z,12.75
2018-04-01T18:49:22.086Z,13.90
2018-04-01T18:51:49.989Z,12.73
2018-04-01T18:54:17.938Z,13.40
2018-04-01T18:56:46.791Z,13.77
2018-04-01T18:59:14.977Z,13.38
2018-04-01T19:01:42.916Z,13.07
2018-04-01T19:04:10.853Z,13.10
2018-04-01T19:06:38.766Z,14.02
2018-04-01T19:09:06.796Z,14.70
2018-04-01T19:11:34.708Z,13.85
2018-04-01T19:14:02.591Z,15.80
2018-04-01T19:16:30.701Z,14.87
2018-04-01T19:18:58.735Z,16.33
2018-04-01T19:21:26.740Z,16.08
2018-04-01T19:23:54.757Z,18.77
2018-04-01T19:26:22.894Z,18.00
2018-04-01T19:28:50.908Z,16.23
2018-04-01T19:31:18.951Z,14.95
2018-04-01T19:33:47.040Z,34.95
2018-04-01T19:36:15.096Z,16.52
2018-04-01T19:38:43.089Z,15.00
2018-04-01T19:41:11.088Z,15.35
2018-04-01T19:43:39.136Z,14.20
2018-04-01T19:46:07.163Z,14.55
2018-04-01T19:48:35.146Z,14.85
2018-04-01T19:51:03.124Z,16.95
2018-04-01T19:53:31.153Z,14.85
2018-04-01T19:56:00.281Z,15.45
2018-04-01T19:58:28.286Z,15.85
2018-04-01T20:00:56.336Z,15.35
2018-04-01T20:03:24.362Z,17.87
2018-04-01T20:05:52.356Z,16.33
2018-04-01T20:08:20.445Z,16.35
2018-04-01T20:10:48.473Z,17.20
2018-04-01T20:13:16.489Z,16.92
2018-04-01T20:15:44.540Z,17.12
2018-04-01T20:18:12.508Z,15.63
2018-04-01T20:20:40.488Z,18.85
2018-04-01T20:23:08.509Z,18.40
2018-04-01T20:25:36.473Z,17.02
2018-04-01T20:28:04.495Z,16.30
2018-04-01T20:30:32.493Z,18.40
2018-04-01T20:33:00.527Z,16.80
2018-04-01T20:35:28.518Z,19.52
2018-04-01T20:37:56.502Z,24.92
2018-04-01T20:40:24.502Z,25.30
2018-04-01T20:42:52.492Z,20.48
2018-04-01T20:45:20.468Z,18.60
2018-04-01T20:47:48.455Z,17.87
2018-04-01T20:50:16.479Z,18.27
2018-04-01T20:52:44.429Z,18.58
2018-04-01T20:55:12.425Z,18.12
2018-04-01T20:57:40.411Z,16.30
2018-04-01T21:00:08.447Z,17.20
2018-04-01T21:02:36.437Z,19.17
2018-04-01T21:05:04.416Z,19.12
2018-04-01T21:07:32.459Z,18.00
2018-04-01T21:10:00.449Z,19.05
2018-04-01T21:12:28.448Z,18.95
2018-04-01T21:14:56.447Z,19.90
2018-04-01T21:17:24.403Z,18.25
2018-04-01T21:19:52.385Z,17.92
2018-04-01T21:22:20.370Z,20.42
2018-04-01T21:24:48.344Z,19.37
2018-04-01T21:27:16.320Z,18.05
2018-04-01T21:29:44.307Z,20.00
2018-04-01T21:32:12.318Z,18.83
2018-04-01T21:34:41.344Z,16.90
2018-04-01T21:37:09.378Z,19.40
2018-04-01T21:39:37.366Z,18.37
2018-04-01T21:42:05.368Z,19.62
2018-04-01T21:44:33.378Z,18.23
2018-04-01T21:47:01.368Z,20.75
2018-04-01T21:49:30.440Z,19.25
2018-04-01T21:51:58.831Z,20.60
2018-04-01T21:54:26.847Z,21.50
2018-04-01T21:56:54.880Z,19.33
2018-04-01T21:59:22.870Z,20.33
2018-04-01T22:01:50.829Z,20.52
2018-04-01T22:04:18.816Z,19.48
2018-04-01T22:06:46.826Z,21.30
2018-04-01T22:09:14.820Z,20.37
2018-04-01T22:11:42.777Z,20.62
2018-04-01T22:14:10.765Z,20.05
2018-04-01T22:16:38.756Z,21.60
2018-04-01T22:19:08.847Z,19.98
2018-04-01T22:21:36.832Z,18.58
2018-04-01T22:24:04.818Z,19.90
2018-04-01T22:26:32.795Z,19.83
2018-04-01T22:29:00.772Z,22.92
2018-04-01T22:31:28.735Z,19.52
2018-04-01T22:33:56.692Z,19.80
2018-04-01T22:36:24.980Z,21.12
2018-04-01T22:38:53.029Z,20.17
2018-04-01T22:41:20.983Z,20.12
2018-04-01T22:43:48.968Z,21.67
2018-04-01T22:46:16.977Z,19.58
2018-04-01T22:48:44.976Z,22.40
2018-04-01T22:51:12.969Z,20.70
2018-04-01T22:53:41.943Z,21.67
2018-04-01T22:56:09.959Z,22.10
2018-04-01T22:58:37.963Z,24.45
2018-04-01T23:01:05.937Z,22.25
2018-04-01T23:03:33.942Z,22.08
2018-04-01T23:06:01.935Z,23.27
2018-04-01T23:08:29.893Z,23.90
2018-04-01T23:10:57.892Z,22.10
2018-04-01T23:13:25.857Z,22.40
2018-04-01T23:15:53.824Z,24.23
2018-04-01T23:18:21.792Z,24.02
2018-04-01T23:20:49.797Z,24.23
2018-04-01T23:23:17.779Z,21.55
2018-04-01T23:25:45.763Z,24.50
2018-04-01T23:28:13.751Z,21.92
2018-04-01T23:30:41.758Z,24.08
2018-04-01T23:33:09.741Z,23.42
2018-04-01T23:35:37.719Z,22.20
2018-04-01T23:38:05.712Z,26.12
2018-04-01T23:40:33.688Z,24.60
2018-04-01T23:43:02.780Z,23.12
2018-04-01T23:45:30.717Z,23.70
2018-04-01T23:47:58.692Z,21.27
2018-04-01T23:50:26.667Z,25.23
2018-04-01T23:52:54.660Z,23.05
2018-04-01T23:55:22.672Z,22.95
2018-04-01T23:57:50.658Z,22.83
